createdAt,value
2018-03-06T00:00:48.882Z,66.04
2018-03-06T00:01:49.741Z,65.89
2018-03-06T00:02:48.943Z,65.94
2018-03-06T00:03:48.878Z,66.02
2018-03-06T00:04:48.904Z,65.86
2018-03-06T00:05:48.890Z,66.19
2018-03-06T00:06:48.907Z,66.19
2018-03-06T00:07:48.896Z,66.41
2018-03-06T00:08:49.189Z,66.36
2018-03-06T00:09:51.875Z,66
2018-03-06T00:10:48.878Z,65.9
2018-03-06T00:11:48.886Z,66.12
2018-03-06T00:12:48.876Z,66.43
2018-03-06T00:13:50.845Z,66.27
2018-03-06T00:14:48.907Z,65.81
2018-03-06T00:15:48.889Z,65.91
2018-03-06T00:16:49.336Z,66.06
2018-03-06T00:17:52.071Z,66.13
2018-03-06T00:18:48.922Z,66.09
2018-03-06T00:19:48.906Z,65.94
2018-03-06T00:20:48.968Z,65.79
2018-03-06T00:21:52.807Z,65.89
2018-03-06T00:22:51.722Z,65.73
2018-03-06T00:23:50.938Z,65.86
2018-03-06T00:24:50.961Z,65.83
2018-03-06T00:25:48.935Z,65.49
2018-03-06T00:26:48.999Z,65.71
2018-03-06T00:27:51.042Z,65.9
2018-03-06T00:28:48.924Z,65.52
2018-03-06T00:29:48.966Z,65.66
2018-03-06T00:30:48.961Z,65.48
2018-03-06T00:31:52.002Z,65.41
2018-03-06T00:32:48.973Z,65.6
2018-03-06T00:33:49.002Z,65.6
2018-03-06T00:34:48.965Z,65.31
2018-03-06T00:35:51.358Z,65.62
2018-03-06T00:36:49.024Z,65.59
2018-03-06T00:37:48.975Z,65.65
2018-03-06T00:38:48.980Z,65.46
2018-03-06T00:39:51.575Z,65.57
2018-03-06T00:40:48.980Z,65.56
2018-03-06T00:41:48.995Z,65.66
2018-03-06T00:42:51.968Z,65.48
2018-03-06T00:43:49.018Z,65.33
2018-03-06T00:44:49.013Z,65.47
2018-03-06T00:45:51.727Z,65.45
2018-03-06T00:46:49.015Z,65.48
2018-03-06T00:47:49.015Z,65.7
2018-03-06T00:48:49.311Z,65.73
2018-03-06T00:49:51.783Z,65.78
2018-03-06T00:50:49.034Z,65.8
2018-03-06T00:51:49.026Z,65.77
2018-03-06T00:52:51.923Z,65.9
2018-03-06T00:53:49.045Z,65.89
2018-03-06T00:54:49.018Z,66.09
2018-03-06T00:55:49.017Z,66.04
2018-03-06T00:56:49.042Z,65.81
2018-03-06T00:57:49.027Z,65.83
2018-03-06T00:58:49.747Z,66.19
2018-03-06T00:59:52.310Z,65.91
2018-03-06T01:00:49.041Z,66.1
2018-03-06T01:01:49.124Z,66.04
2018-03-06T01:02:50.527Z,65.85
2018-03-06T01:03:49.057Z,65.95
2018-03-06T01:04:49.085Z,65.9
2018-03-06T01:05:49.048Z,66.14
2018-03-06T01:06:51.834Z,66.09
2018-03-06T01:07:49.075Z,66.05
2018-03-06T01:08:49.090Z,65.97
2018-03-06T01:09:49.101Z,66.15
2018-03-06T01:10:51.029Z,65.75
2018-03-06T01:11:49.081Z,65.74
2018-03-06T01:12:49.086Z,65.81
2018-03-06T01:13:51.898Z,65.79
2018-03-06T01:14:49.102Z,65.85
2018-03-06T01:15:49.073Z,65.73
2018-03-06T01:16:49.089Z,65.97
2018-03-06T01:17:51.540Z,65.82
2018-03-06T01:18:49.098Z,65.83
2018-03-06T01:19:49.121Z,65.84
2018-03-06T01:20:49.105Z,65.76
2018-03-06T01:21:51.008Z,65.86
2018-03-06T01:22:49.083Z,66.02
2018-03-06T01:23:49.088Z,66.19
2018-03-06T01:24:49.377Z,66.25
2018-03-06T01:25:49.103Z,66
2018-03-06T01:26:49.113Z,65.96
2018-03-06T01:27:49.121Z,66.25
2018-03-06T01:28:51.698Z,66.34
2018-03-06T01:29:49.122Z,66.36
2018-03-06T01:30:51.044Z,66.38
2018-03-06T01:31:51.186Z,66.24
2018-03-06T01:32:49.161Z,65.92
2018-03-06T01:33:49.129Z,66.1
2018-03-06T01:34:51.981Z,66.24
2018-03-06T01:35:49.129Z,65.97
2018-03-06T01:36:49.177Z,66.04
2018-03-06T01:37:49.596Z,66.04
2018-03-06T01:38:49.136Z,66.3
2018-03-06T01:39:49.183Z,66.06
2018-03-06T01:40:49.166Z,66.28
2018-03-06T01:41:51.642Z,66.16
2018-03-06T01:45:00.676Z,66.29
2018-03-06T01:45:51.493Z,66.38
2018-03-06T01:46:51.069Z,66.65
2018-03-06T01:47:52.700Z,66.53
2018-03-06T01:48:51.413Z,66.58
2018-03-06T01:49:51.329Z,66.66
2018-03-06T01:52:12.437Z,66.87
2018-03-06T01:52:15.256Z,66.48
2018-03-06T01:53:51.614Z,66.91
2018-03-06T01:59:11.767Z,67.38
2018-03-06T02:00:05.143Z,67.03
2018-03-06T02:01:07.090Z,67.31
2018-03-06T02:02:04.542Z,67.12
2018-03-06T02:03:06.425Z,67.15
2018-03-06T02:04:20.664Z,67.17
2018-03-06T02:05:03.418Z,67.34
2018-03-06T02:06:12.032Z,67.59
2018-03-06T02:08:06.036Z,67.55
2018-03-06T02:09:02.621Z,67.56
2018-03-06T02:10:06.829Z,67.34
2018-03-06T02:11:10.642Z,67.51
2018-03-06T02:12:10.203Z,67.45
2018-03-06T02:13:08.689Z,67.56
2018-03-06T02:14:04.755Z,67.69
2018-03-06T02:15:06.862Z,67.53
2018-03-06T02:17:06.140Z,67.37
2018-03-06T02:18:05.656Z,67.64
2018-03-06T02:19:15.185Z,67.8
2018-03-06T02:20:04.866Z,67.55
2018-03-06T02:21:15.218Z,67.62
2018-03-06T02:23:03.345Z,67.52
2018-03-06T02:24:51.072Z,67.55
2018-03-06T02:35:27.120Z,67.65
2018-03-06T02:36:26.541Z,67.98
2018-03-06T02:37:35.551Z,67.71
2018-03-06T02:38:24.938Z,67.95
2018-03-06T02:39:24.025Z,67.65
2018-03-06T02:40:24.903Z,67.66
2018-03-06T02:41:22.606Z,67.9
2018-03-06T02:42:22.628Z,68.01
2018-03-06T02:43:24.872Z,67.69
2018-03-06T02:44:22.918Z,67.76
2018-03-06T02:45:22.604Z,67.9
2018-03-06T02:46:22.618Z,67.61
2018-03-06T02:47:24.862Z,67.48
2018-03-06T02:48:22.642Z,67.39
2018-03-06T02:49:22.665Z,67.79
2018-03-06T02:50:22.653Z,67.76
2018-03-06T02:51:22.638Z,67.43
2018-03-06T02:52:22.705Z,67.7
2018-03-06T02:53:22.668Z,67.9
2018-03-06T02:54:25.523Z,67.91
2018-03-06T02:55:22.637Z,67.88
2018-03-06T02:56:22.657Z,68.2
2018-03-06T02:57:22.661Z,68.01
2018-03-06T02:58:22.665Z,68.15
2018-03-06T02:59:22.670Z,68.27
2018-03-06T03:00:22.655Z,68.23
2018-03-06T03:01:25.720Z,68.16
2018-03-06T03:02:22.664Z,68.12
2018-03-06T03:03:22.703Z,68.06
2018-03-06T03:04:22.662Z,67.85
2018-03-06T03:05:25.468Z,67.85
2018-03-06T03:06:22.685Z,67.95
2018-03-06T03:07:22.717Z,68.03
2018-03-06T03:08:22.712Z,68.04
2018-03-06T03:09:25.367Z,67.99
2018-03-06T03:10:22.699Z,68.05
2018-03-06T03:11:22.707Z,67.88
2018-03-06T03:12:25.590Z,67.98
2018-03-06T03:13:22.873Z,68.08
2018-03-06T03:14:22.726Z,68.19
2018-03-06T03:15:22.761Z,68.01
2018-03-06T03:16:25.590Z,68.39
2018-03-06T03:17:22.784Z,68.33
2018-03-06T03:18:22.740Z,68.44
2018-03-06T03:19:22.743Z,68.42
2018-03-06T03:20:24.639Z,68.29
2018-03-06T03:21:23.021Z,68.23
2018-03-06T03:22:22.734Z,68.18
2018-03-06T03:23:25.525Z,68.22
2018-03-06T03:24:22.757Z,68.32
2018-03-06T03:25:22.723Z,68.36
2018-03-06T03:26:22.768Z,68.47
2018-03-06T03:27:22.775Z,68.68
2018-03-06T03:28:22.786Z,68.67
2018-03-06T03:29:22.752Z,68.4
2018-03-06T03:30:25.095Z,68.56
2018-03-06T03:31:22.785Z,68.58
2018-03-06T03:32:23.043Z,68.63
2018-03-06T03:33:25.294Z,68.72
2018-03-06T03:34:22.782Z,68.74
2018-03-06T03:35:22.797Z,68.58
2018-03-06T03:36:24.556Z,68.69
2018-03-06T03:37:22.818Z,68.99
2018-03-06T03:38:22.808Z,69.17
2018-03-06T03:39:25.857Z,69.01
2018-03-06T03:40:22.818Z,69.37
2018-03-06T03:41:22.793Z,69.3
2018-03-06T03:42:25.755Z,69.58
2018-03-06T03:43:22.830Z,69.6
2018-03-06T03:44:22.801Z,69.85
2018-03-06T03:45:22.806Z,69.81
2018-03-06T03:46:22.823Z,69.61
2018-03-06T03:47:22.886Z,69.68
2018-03-06T03:48:22.846Z,69.56
2018-03-06T03:49:24.998Z,69.77
2018-03-06T03:50:23.084Z,69.99
2018-03-06T03:51:22.881Z,70.04
2018-03-06T03:52:24.816Z,70.23
2018-03-06T03:53:22.872Z,70.27
2018-03-06T03:54:22.862Z,70.26
2018-03-06T03:55:25.958Z,70.08
2018-03-06T03:56:22.879Z,70.04
2018-03-06T03:57:22.864Z,70.21
2018-03-06T03:58:22.851Z,70.1
2018-03-06T03:59:24.946Z,70.17
2018-03-06T04:00:22.895Z,70.21
2018-03-06T04:01:22.888Z,70.52
2018-03-06T04:02:25.724Z,70.76
2018-03-06T04:03:22.870Z,70.73
2018-03-06T04:04:22.914Z,70.94
2018-03-06T04:05:22.905Z,70.92
2018-03-06T04:06:22.904Z,70.79
2018-03-06T04:07:22.896Z,70.71
2018-03-06T04:08:25.269Z,70.92
2018-03-06T04:09:22.913Z,70.85
2018-03-06T04:10:22.916Z,71
2018-03-06T04:11:25.485Z,71.25
2018-03-06T04:12:22.942Z,71.07
2018-03-06T04:13:22.892Z,70.88
2018-03-06T04:14:24.844Z,71.36
2018-03-06T04:15:22.922Z,71.3
2018-03-06T04:16:22.969Z,71.53
2018-03-06T04:17:22.926Z,71.59
2018-03-06T04:18:25.401Z,71.52
2018-03-06T04:19:22.902Z,71.62
2018-03-06T04:20:22.920Z,71.78
2018-03-06T04:21:25.335Z,71.9
2018-03-06T04:22:22.943Z,72
2018-03-06T04:23:22.948Z,72.02
2018-03-06T04:24:25.582Z,71.97
2018-03-06T04:25:22.941Z,71.99
2018-03-06T04:26:22.984Z,71.99
2018-03-06T04:27:23.000Z,72.02
2018-03-06T04:28:25.700Z,72.26
2018-03-06T04:29:22.976Z,72.31
2018-03-06T04:30:22.989Z,71.95
2018-03-06T04:31:25.864Z,72.12
2018-03-06T04:32:22.992Z,72.21
2018-03-06T04:33:23.013Z,71.99
2018-03-06T04:34:24.343Z,72.16
2018-03-06T04:35:23.003Z,72.28
2018-03-06T04:36:22.975Z,72.4
2018-03-06T04:37:23.002Z,72.23
2018-03-06T04:38:25.819Z,72.24
2018-03-06T04:39:23.037Z,72.17
2018-03-06T04:40:23.026Z,72.1
2018-03-06T04:41:25.884Z,72.23
2018-03-06T04:42:23.051Z,72.33
2018-03-06T04:43:23.051Z,72.38
2018-03-06T04:44:23.069Z,72.43
2018-03-06T04:45:25.212Z,72.29
2018-03-06T04:46:23.051Z,72.07
2018-03-06T04:47:23.038Z,72.01
2018-03-06T04:48:25.876Z,72.1
2018-03-06T04:49:23.036Z,72.08
2018-03-06T04:50:23.077Z,72.19
2018-03-06T04:51:23.045Z,72.19
2018-03-06T04:52:25.671Z,72.13
2018-03-06T04:53:23.057Z,72.29
2018-03-06T04:54:23.066Z,72.3
2018-03-06T04:55:24.273Z,72.01
2018-03-06T04:56:23.063Z,72.32
2018-03-06T04:57:23.089Z,72.04
2018-03-06T04:58:23.078Z,71.77
2018-03-06T04:59:24.933Z,71.82
2018-03-06T05:00:23.080Z,72
2018-03-06T05:01:23.137Z,72.02
2018-03-06T05:02:23.128Z,71.99
2018-03-06T05:03:25.204Z,71.85
2018-03-06T05:04:23.091Z,72.07
2018-03-06T05:05:23.080Z,72.27
2018-03-06T05:06:23.102Z,71.95
2018-03-06T05:07:25.343Z,72.23
2018-03-06T05:08:23.101Z,72.06
2018-03-06T05:09:23.107Z,71.84
2018-03-06T05:10:24.515Z,72.13
2018-03-06T05:11:23.192Z,72.09
2018-03-06T05:12:23.104Z,71.77
2018-03-06T05:13:26.003Z,71.76
2018-03-06T05:14:23.105Z,71.56
2018-03-06T05:15:23.108Z,71.51
2018-03-06T05:16:25.473Z,71.61
2018-03-06T05:17:23.135Z,71.72
2018-03-06T05:18:23.132Z,72.05
2018-03-06T05:19:23.144Z,72.2
2018-03-06T05:20:25.646Z,71.82
2018-03-06T05:21:23.150Z,71.86
2018-03-06T05:22:23.159Z,72
2018-03-06T05:23:23.145Z,71.8
2018-03-06T05:24:26.429Z,71.63
2018-03-06T05:25:23.175Z,71.81
2018-03-06T05:26:23.168Z,71.85
2018-03-06T05:27:23.167Z,71.72
2018-03-06T05:28:25.881Z,71.69
2018-03-06T05:29:23.208Z,71.77
2018-03-06T05:30:23.148Z,71.65
2018-03-06T05:31:23.169Z,71.45
2018-03-06T05:32:25.515Z,71.58
2018-03-06T05:33:23.197Z,72.08
2018-03-06T05:34:23.198Z,72.14
2018-03-06T05:35:25.665Z,72.01
2018-03-06T05:36:23.184Z,71.67
2018-03-06T05:37:23.182Z,71.87
2018-03-06T05:38:23.176Z,71.77
2018-03-06T05:39:25.945Z,71.96
2018-03-06T05:40:23.185Z,71.82
2018-03-06T05:41:23.202Z,71.89
2018-03-06T05:42:23.237Z,71.91
2018-03-06T05:43:26.097Z,72
2018-03-06T05:44:23.312Z,71.98
2018-03-06T05:45:23.243Z,72.2
2018-03-06T05:46:23.188Z,71.99
2018-03-06T05:47:25.673Z,71.98
2018-03-06T05:48:23.226Z,71.89
2018-03-06T05:49:23.225Z,71.76
2018-03-06T05:50:24.184Z,71.67
2018-03-06T05:51:23.238Z,71.72
2018-03-06T05:52:23.244Z,71.86
2018-03-06T05:53:23.217Z,72.21
2018-03-06T05:54:26.095Z,72.4
2018-03-06T05:55:23.238Z,72.19
2018-03-06T05:56:23.252Z,72.49
2018-03-06T05:57:23.232Z,72.29
2018-03-06T05:58:25.965Z,72.23
2018-03-06T05:59:23.269Z,72.42
2018-03-06T06:00:23.262Z,72.25
2018-03-06T06:01:23.281Z,72.04
2018-03-06T06:02:26.036Z,72.02
2018-03-06T06:03:23.253Z,72
2018-03-06T06:04:23.362Z,72.16
2018-03-06T06:05:26.044Z,71.77
2018-03-06T06:06:23.261Z,71.95
2018-03-06T06:07:23.289Z,71.66
2018-03-06T06:08:25.628Z,72.05
2018-03-06T06:09:23.328Z,71.95
2018-03-06T06:10:23.369Z,71.83
2018-03-06T06:11:26.152Z,71.82
2018-03-06T06:12:23.327Z,71.64
2018-03-06T06:13:23.303Z,71.66
2018-03-06T06:14:23.253Z,71.8
2018-03-06T06:15:23.279Z,71.88
2018-03-06T06:16:23.258Z,72.03
2018-03-06T06:17:23.279Z,72
2018-03-06T06:18:23.285Z,72.24
2018-03-06T06:19:23.284Z,72.19
2018-03-06T06:20:23.285Z,72.32
2018-03-06T06:21:23.469Z,72.33
2018-03-06T06:22:23.754Z,72.39
2018-03-06T06:23:23.283Z,72.27
2018-03-06T06:24:23.362Z,72.38
2018-03-06T06:25:23.315Z,72.22
2018-03-06T06:26:23.324Z,72.45
2018-03-06T06:27:23.317Z,72.71
2018-03-06T06:28:23.300Z,72.39
2018-03-06T06:29:23.379Z,71.91
2018-03-06T06:30:23.282Z,71.76
2018-03-06T06:31:23.303Z,72.44
2018-03-06T06:32:23.301Z,71.91
2018-03-06T06:33:23.327Z,72.1
2018-03-06T06:34:23.304Z,72.25
2018-03-06T06:35:23.567Z,72.6
2018-03-06T06:36:23.285Z,72.72
2018-03-06T06:37:23.362Z,72.72
2018-03-06T06:38:23.324Z,72.82
2018-03-06T06:39:23.310Z,72.72
2018-03-06T06:40:23.305Z,72.92
2018-03-06T06:41:23.349Z,72.48
2018-03-06T06:42:23.432Z,72.48
2018-03-06T06:43:23.338Z,72.72
2018-03-06T06:44:23.323Z,72.62
2018-03-06T06:45:23.325Z,72.57
2018-03-06T06:46:23.330Z,72.54
2018-03-06T06:47:23.349Z,72.65
2018-03-06T06:48:23.350Z,73.1
2018-03-06T06:49:23.352Z,72.94
2018-03-06T06:50:23.349Z,73.05
2018-03-06T06:51:23.358Z,73.38
2018-03-06T06:52:23.526Z,73.69
2018-03-06T06:53:23.370Z,74.01
2018-03-06T06:54:23.391Z,74.04
2018-03-06T06:55:23.375Z,73.97
2018-03-06T06:56:23.376Z,74.29
2018-03-06T06:57:23.377Z,74.04
2018-03-06T06:58:23.445Z,74.32
2018-03-06T06:59:23.384Z,74.41
2018-03-06T07:00:23.433Z,74.65
2018-03-06T07:01:23.391Z,75.34
2018-03-06T07:02:23.387Z,75.99
2018-03-06T07:03:23.409Z,76.4
2018-03-06T07:04:23.560Z,76.41
2018-03-06T07:05:23.403Z,75.62
2018-03-06T07:06:23.430Z,74.98
2018-03-06T07:07:23.407Z,75.43
2018-03-06T07:08:23.436Z,75.58
2018-03-06T07:09:23.449Z,75.48
2018-03-06T07:10:23.765Z,75.55
2018-03-06T07:11:23.449Z,75.75
2018-03-06T07:12:23.443Z,75.69
2018-03-06T07:13:23.426Z,76.17
2018-03-06T07:14:23.480Z,76.72
2018-03-06T07:15:23.427Z,77.16
2018-03-06T07:16:23.432Z,76.87
2018-03-06T07:17:23.455Z,76.46
2018-03-06T07:18:23.456Z,76.22
2018-03-06T07:19:23.436Z,76.37
2018-03-06T07:20:23.456Z,76.65
2018-03-06T07:21:23.454Z,76.96
2018-03-06T07:22:23.467Z,77
2018-03-06T07:23:23.468Z,77.11
2018-03-06T07:24:23.458Z,77.23
2018-03-06T07:25:23.471Z,77.11
2018-03-06T07:26:23.463Z,76.95
2018-03-06T07:27:23.471Z,76.93
2018-03-06T07:28:23.468Z,76.89
2018-03-06T07:29:23.475Z,76.15
2018-03-06T07:30:23.482Z,76.21
2018-03-06T07:31:23.480Z,76.15
2018-03-06T07:32:23.635Z,76.21
2018-03-06T07:33:23.481Z,76.28
2018-03-06T07:34:23.497Z,76.44
2018-03-06T07:35:23.494Z,76.45
2018-03-06T07:36:23.489Z,76.35
2018-03-06T07:37:23.507Z,76.26
2018-03-06T07:38:23.500Z,75.98
2018-03-06T07:39:23.499Z,76.16
2018-03-06T07:40:23.496Z,75.94
2018-03-06T07:41:23.506Z,76.17
2018-03-06T07:42:23.506Z,75.86
2018-03-06T07:43:23.514Z,75.87
2018-03-06T07:44:23.525Z,75.89
2018-03-06T07:45:23.663Z,75.18
2018-03-06T07:46:23.518Z,75.49
2018-03-06T07:47:23.516Z,75.43
2018-03-06T07:48:23.537Z,75.26
2018-03-06T07:49:23.529Z,75.47
2018-03-06T07:50:23.552Z,75.3
2018-03-06T07:51:23.587Z,75.19
2018-03-06T07:52:23.564Z,74.67
2018-03-06T07:53:23.539Z,75.01
2018-03-06T07:54:23.554Z,74.9
2018-03-06T07:55:23.551Z,74.86
2018-03-06T07:56:23.549Z,74.54
2018-03-06T07:57:23.552Z,74.09
2018-03-06T07:58:23.548Z,74.38
2018-03-06T07:59:23.580Z,74.43
2018-03-06T08:00:23.572Z,74.31
2018-03-06T08:01:23.556Z,74.09
2018-03-06T08:02:23.571Z,74.01
2018-03-06T08:03:23.743Z,73.77
2018-03-06T08:04:23.578Z,73.83
2018-03-06T08:05:23.591Z,73.85
2018-03-06T08:06:23.592Z,73.75
2018-03-06T08:07:23.589Z,73.36
2018-03-06T08:08:23.587Z,73.71
2018-03-06T08:09:23.613Z,73.46
2018-03-06T08:10:23.587Z,73.21
2018-03-06T08:11:23.623Z,73.39
2018-03-06T08:12:23.600Z,73.79
2018-03-06T08:13:23.606Z,73.48
2018-03-06T08:14:23.604Z,73.67
2018-03-06T08:15:23.620Z,73.83
2018-03-06T08:16:23.614Z,73.51
2018-03-06T08:17:23.622Z,73.58
2018-03-06T08:18:23.628Z,73.86
2018-03-06T08:19:23.615Z,73.28
2018-03-06T08:20:23.619Z,72.94
2018-03-06T08:21:23.632Z,73.04
2018-03-06T08:22:23.653Z,73.02
2018-03-06T08:23:23.917Z,72.79
2018-03-06T08:24:23.639Z,73.1
2018-03-06T08:25:23.653Z,72.93
2018-03-06T08:26:23.648Z,73.06
2018-03-06T08:27:23.660Z,73.14
2018-03-06T08:28:23.696Z,73.41
2018-03-06T08:29:23.670Z,73.95
2018-03-06T08:30:23.665Z,73.67
2018-03-06T08:31:23.668Z,73.28
2018-03-06T08:32:23.672Z,73.22
2018-03-06T08:33:23.692Z,73.38
2018-03-06T08:35:23.675Z,73.83
2018-03-06T08:36:23.691Z,73.53
2018-03-06T08:37:23.674Z,73.64
2018-03-06T08:38:23.696Z,73.38
2018-03-06T08:39:23.703Z,73.5
2018-03-06T08:40:23.691Z,73.37
2018-03-06T08:41:23.724Z,73.37
2018-03-06T08:42:23.711Z,72.9
2018-03-06T08:43:23.701Z,72.66
2018-03-06T08:44:23.717Z,72.92
2018-03-06T08:45:23.713Z,72.25
2018-03-06T08:46:23.742Z,72.18
2018-03-06T08:47:23.713Z,72.28
2018-03-06T08:48:23.726Z,72.13
2018-03-06T08:49:23.726Z,71.96
2018-03-06T08:50:23.739Z,71.86
2018-03-06T08:51:23.771Z,71.38
2018-03-06T08:52:23.980Z,71.6
2018-03-06T08:53:23.740Z,71.65
2018-03-06T08:54:23.751Z,71.3
2018-03-06T08:55:23.750Z,71.35
2018-03-06T08:56:23.770Z,71.51
2018-03-06T08:57:23.746Z,71.03
2018-03-06T08:58:23.762Z,70.69
2018-03-06T08:59:23.777Z,70.79
2018-03-06T09:00:23.769Z,69.74
2018-03-06T09:01:23.832Z,69.92
2018-03-06T09:02:23.788Z,70.05
2018-03-06T09:03:23.777Z,69.74
2018-03-06T09:04:23.786Z,69.21
2018-03-06T09:05:23.792Z,69.08
2018-03-06T09:06:23.806Z,69.13
2018-03-06T09:07:23.792Z,69.07
2018-03-06T09:08:23.828Z,68.79
2018-03-06T09:09:23.798Z,69.05
2018-03-06T09:10:23.827Z,69.05
2018-03-06T09:11:23.815Z,68.62
2018-03-06T09:12:23.809Z,68.53
2018-03-06T09:13:23.865Z,68.48
2018-03-06T09:14:23.802Z,68.5
2018-03-06T09:15:23.809Z,68.5
2018-03-06T09:16:23.819Z,68.33
2018-03-06T09:17:24.075Z,68.45
2018-03-06T09:18:23.818Z,68.43
2018-03-06T09:19:23.841Z,68.05
2018-03-06T09:20:23.815Z,67.81
2018-03-06T09:21:23.826Z,67.97
2018-03-06T09:22:23.879Z,67.95
2018-03-06T09:23:23.828Z,66.81
2018-03-06T09:24:24.008Z,67.17
2018-03-06T09:25:23.841Z,67.5
2018-03-06T09:26:23.833Z,67.05
2018-03-06T09:27:23.860Z,66.87
2018-03-06T09:28:23.846Z,66.99
2018-03-06T09:29:23.844Z,66.82
2018-03-06T09:30:23.841Z,66.7
2018-03-06T09:31:23.854Z,66.79
2018-03-06T09:32:23.881Z,66.62
2018-03-06T09:33:23.863Z,66.48
2018-03-06T09:34:23.847Z,66.49
2018-03-06T09:35:23.871Z,66.69
2018-03-06T09:36:23.864Z,66.98
2018-03-06T09:37:24.134Z,66.68
2018-03-06T09:38:23.861Z,66.55
2018-03-06T09:39:23.870Z,66.17
2018-03-06T09:40:23.875Z,65.69
2018-03-06T09:41:23.871Z,65.62
2018-03-06T09:42:23.897Z,65.69
2018-03-06T09:43:23.866Z,65.52
2018-03-06T09:44:23.869Z,65.46
2018-03-06T09:45:23.896Z,65.94
2018-03-06T09:46:23.881Z,65.5
2018-03-06T09:47:23.898Z,65.7
2018-03-06T09:48:23.882Z,66.24
2018-03-06T09:49:23.885Z,65.58
2018-03-06T09:50:23.960Z,64.76
2018-03-06T09:51:23.885Z,65.1
2018-03-06T09:52:23.983Z,65.14
2018-03-06T09:53:24.627Z,64.74
2018-03-06T09:54:23.900Z,64.82
2018-03-06T09:55:23.891Z,64.89
2018-03-06T09:56:24.077Z,64.79
2018-03-06T09:57:23.924Z,64.52
2018-03-06T09:58:23.902Z,64.26
2018-03-06T09:59:23.908Z,64.61
2018-03-06T10:00:23.920Z,64.24
2018-03-06T10:01:23.967Z,64.23
2018-03-06T10:02:23.953Z,64.48
2018-03-06T10:03:23.923Z,65.14
2018-03-06T10:04:23.931Z,64.77
2018-03-06T10:05:23.914Z,64.97
2018-03-06T10:06:23.928Z,64.51
2018-03-06T10:07:23.931Z,64.31
2018-03-06T10:08:23.936Z,64.49
2018-03-06T10:09:23.921Z,64.53
2018-03-06T10:10:23.936Z,64.45
2018-03-06T10:11:23.947Z,64.37
2018-03-06T10:12:23.978Z,64.05
2018-03-06T10:13:23.957Z,64.74
2018-03-06T10:14:23.972Z,63.71
2018-03-06T10:15:23.952Z,63.68
2018-03-06T10:16:23.962Z,63.97
2018-03-06T10:17:23.956Z,63.77
2018-03-06T10:18:23.968Z,63.38
2018-03-06T10:19:24.012Z,63.47
2018-03-06T10:20:23.955Z,63.77
2018-03-06T10:21:23.981Z,63.08
2018-03-06T10:22:24.084Z,63.02
2018-03-06T10:23:23.990Z,62.71
2018-03-06T10:24:24.029Z,62.9
2018-03-06T10:25:23.968Z,61.75
2018-03-06T10:26:23.971Z,61.64
2018-03-06T10:27:24.015Z,62.23
2018-03-06T10:28:23.995Z,62.32
2018-03-06T10:29:24.011Z,62.48
2018-03-06T10:30:23.995Z,62.3
2018-03-06T10:31:23.992Z,62.64
2018-03-06T10:32:24.002Z,62.52
2018-03-06T10:33:24.052Z,62.3
2018-03-06T10:34:24.277Z,62.38
2018-03-06T10:35:24.098Z,61.99
2018-03-06T10:36:24.006Z,62.18
2018-03-06T10:37:24.009Z,61.61
2018-03-06T10:38:24.014Z,62.12
2018-03-06T10:39:24.047Z,61.76
2018-03-06T10:40:24.027Z,61.56
2018-03-06T10:41:24.039Z,60.38
2018-03-06T10:42:24.031Z,61.35
2018-03-06T10:43:24.057Z,60.82
2018-03-06T10:44:24.058Z,60.43
2018-03-06T10:45:24.043Z,60.63
2018-03-06T10:46:24.058Z,61.21
2018-03-06T10:47:24.199Z,60.45
2018-03-06T10:48:24.064Z,61.43
2018-03-06T10:49:24.062Z,61.22
2018-03-06T10:50:24.064Z,60.34
2018-03-06T10:51:24.064Z,60.28
2018-03-06T10:52:24.071Z,60.66
2018-03-06T10:53:24.077Z,60.79
2018-03-06T10:54:24.096Z,60.91
2018-03-06T10:55:24.092Z,61.76
2018-03-06T10:56:24.103Z,61.62
2018-03-06T10:57:24.081Z,61.55
2018-03-06T10:58:24.096Z,61.66
2018-03-06T10:59:24.218Z,60.89
2018-03-06T11:00:24.095Z,61.01
2018-03-06T11:01:24.099Z,60.62
2018-03-06T11:02:24.100Z,60.89
2018-03-06T11:03:24.126Z,60.58
2018-03-06T11:04:24.252Z,61.1
2018-03-06T11:05:24.107Z,60.77
2018-03-06T11:06:24.112Z,60.51
2018-03-06T11:07:24.138Z,60.93
2018-03-06T11:08:24.132Z,60.64
2018-03-06T11:09:24.253Z,60.03
2018-03-06T11:10:24.141Z,60.69
2018-03-06T11:11:24.166Z,59.98
2018-03-06T11:12:24.148Z,60.85
2018-03-06T11:13:24.149Z,60.87
2018-03-06T11:14:24.576Z,60.66
2018-03-06T11:15:24.147Z,60.71
2018-03-06T11:16:24.149Z,60.91
2018-03-06T11:17:24.141Z,60.48
2018-03-06T11:18:24.407Z,60.16
2018-03-06T11:19:24.146Z,60.28
2018-03-06T11:20:24.160Z,60.62
2018-03-06T11:21:24.199Z,60.65
2018-03-06T11:22:24.258Z,61
2018-03-06T11:23:24.175Z,60.02
2018-03-06T11:24:24.175Z,59.68
2018-03-06T11:25:24.180Z,60.85
2018-03-06T11:26:24.176Z,60.22
2018-03-06T11:27:24.187Z,59.46
2018-03-06T11:28:24.183Z,59.3
2018-03-06T11:29:24.184Z,59.74
2018-03-06T11:30:24.229Z,59
2018-03-06T11:31:24.206Z,59.52
2018-03-06T11:32:24.208Z,59.71
2018-03-06T11:33:24.201Z,58.93
2018-03-06T11:34:24.210Z,59.58
2018-03-06T11:35:24.319Z,59.06
2018-03-06T11:36:24.195Z,59.79
2018-03-06T11:37:24.242Z,59.81
2018-03-06T11:38:24.211Z,59.75
2018-03-06T11:39:24.215Z,59.6
2018-03-06T11:40:26.662Z,59.42
2018-03-06T11:41:24.225Z,59.35
2018-03-06T11:42:24.382Z,59.2
2018-03-06T11:43:24.208Z,58.58
2018-03-06T11:44:24.225Z,58.16
2018-03-06T11:45:24.219Z,58.8
2018-03-06T11:46:24.227Z,59.03
2018-03-06T11:47:24.216Z,59.11
2018-03-06T11:48:24.220Z,58.99
2018-03-06T11:49:24.225Z,59.03
2018-03-06T11:50:24.232Z,58.8
2018-03-06T11:51:24.249Z,58.62
2018-03-06T11:52:24.227Z,58.51
2018-03-06T11:53:24.236Z,58.76
2018-03-06T11:54:26.390Z,58.56
2018-03-06T11:55:24.261Z,58.48
2018-03-06T11:56:24.242Z,58.63
2018-03-06T11:57:24.254Z,58.41
2018-03-06T11:58:24.321Z,58.36
2018-03-06T11:59:24.292Z,58.3
2018-03-06T12:00:24.256Z,58.24
2018-03-06T12:01:24.262Z,58.61
2018-03-06T12:02:24.256Z,58.03
2018-03-06T12:03:24.287Z,57.9
2018-03-06T12:04:24.267Z,58.08
2018-03-06T12:05:24.355Z,58.42
2018-03-06T12:06:24.282Z,58.59
2018-03-06T12:07:24.288Z,58.72
2018-03-06T12:08:24.291Z,58.78
2018-03-06T12:09:24.323Z,59.01
2018-03-06T12:10:24.316Z,57.73
2018-03-06T12:11:24.306Z,57.77
2018-03-06T12:12:24.300Z,58.58
2018-03-06T12:13:24.384Z,58.77
2018-03-06T12:14:24.305Z,59.1
2018-03-06T12:15:24.319Z,58.76
2018-03-06T12:16:24.303Z,58.79
2018-03-06T12:17:24.307Z,58.56
2018-03-06T12:18:24.304Z,58.41
2018-03-06T12:19:24.338Z,58.06
2018-03-06T12:20:24.301Z,58.49
2018-03-06T12:21:24.449Z,58.49
2018-03-06T12:22:24.314Z,58.24
2018-03-06T12:23:24.333Z,58.52
2018-03-06T12:24:24.338Z,58.55
2018-03-06T12:25:24.338Z,58.48
2018-03-06T12:26:24.349Z,58.35
2018-03-06T12:27:24.328Z,58.27
2018-03-06T12:28:24.358Z,57.56
2018-03-06T12:29:24.336Z,57.01
2018-03-06T12:30:24.431Z,57.87
2018-03-06T12:31:24.365Z,57.87
2018-03-06T12:32:24.378Z,57.44
2018-03-06T12:33:24.523Z,57.62
2018-03-06T12:34:24.464Z,57.56
2018-03-06T12:35:24.366Z,58.22
2018-03-06T12:36:24.366Z,57.94
2018-03-06T12:37:24.367Z,57.06
2018-03-06T12:38:24.382Z,57.6
2018-03-06T12:39:24.392Z,57.46
2018-03-06T12:40:24.362Z,57.57
2018-03-06T12:41:24.411Z,57.65
2018-03-06T12:42:24.380Z,57.58
2018-03-06T12:43:24.389Z,57.75
2018-03-06T12:44:24.375Z,57.87
2018-03-06T12:45:24.386Z,57.36
2018-03-06T12:46:24.383Z,57.09
2018-03-06T12:47:24.380Z,56.78
2018-03-06T12:48:24.382Z,57.26
2018-03-06T12:49:24.414Z,57.3
2018-03-06T12:50:24.413Z,57.17
2018-03-06T12:51:24.403Z,56.51
2018-03-06T12:52:24.408Z,57.24
2018-03-06T12:53:24.405Z,57.45
2018-03-06T12:54:24.415Z,56.82
2018-03-06T12:55:24.409Z,56.77
2018-03-06T12:56:24.410Z,57.55
2018-03-06T12:57:24.420Z,57.62
2018-03-06T12:58:24.424Z,57.98
2018-03-06T12:59:24.424Z,58.07
2018-03-06T13:00:24.430Z,57.86
2018-03-06T13:01:24.473Z,57.82
2018-03-06T13:02:24.440Z,57.46
2018-03-06T13:03:24.430Z,57.37
2018-03-06T13:04:24.450Z,57.49
2018-03-06T13:05:24.444Z,57.63
2018-03-06T13:06:24.466Z,57.53
2018-03-06T13:07:24.461Z,57.06
2018-03-06T13:08:24.453Z,57.1
2018-03-06T13:09:24.454Z,57.9
2018-03-06T13:10:24.454Z,57.57
2018-03-06T13:11:24.455Z,57.4
2018-03-06T13:12:24.468Z,56.9
2018-03-06T13:13:24.470Z,56.65
2018-03-06T13:14:24.552Z,56.71
2018-03-06T13:15:24.480Z,56.57
2018-03-06T13:16:24.477Z,56.71
2018-03-06T13:17:24.490Z,56.57
2018-03-06T13:18:24.504Z,56.54